sensor_id;sensor_type;location;lat;lon;timestamp;P1;durP1;ratioP1;P2;durP2;ratioP2
9310;SDS011;4694;52.464;13.480;2022-10-12T00:00:06;33.10;;;16.80;;
9310;SDS011;4694;52.464;13.480;2022-10-12T00:02:33;29.67;;;17.50;;
9310;SDS011;4694;52.464;13.480;2022-10-12T00:05:01;32.67;;;18.05;;
9310;SDS011;4694;52.464;13.480;2022-10-12T00:07:28;32.28;;;16.80;;
9310;SDS011;4694;52.464;13.480;2022-10-12T00:09:55;27.17;;;15.85;;
9310;SDS011;4694;52.464;13.480;2022-10-12T00:12:22;28.83;;;17.13;;
9310;SDS011;4694;52.464;13.480;2022-10-12T00:14:50;31.63;;;16.23;;
9310;SDS011;4694;52.464;13.480;2022-10-12T00:17:17;28.60;;;14.13;;
9310;SDS011;4694;52.464;13.480;2022-10-12T00:19:44;23.38;;;14.80;;
9310;SDS011;4694;52.464;13.480;2022-10-12T00:22:11;27.55;;;16.40;;
9310;SDS011;4694;52.464;13.480;2022-10-12T00:24:38;26.80;;;14.30;;
9310;SDS011;4694;52.464;13.480;2022-10-12T00:27:05;26.38;;;17.20;;
9310;SDS011;4694;52.464;13.480;2022-10-12T00:29:32;31.40;;;15.15;;
9310;SDS011;4694;52.464;13.480;2022-10-12T00:32:00;22.02;;;13.43;;
9310;SDS011;4694;52.464;13.480;2022-10-12T00:34:27;25.75;;;14.73;;
9310;SDS011;4694;52.464;13.480;2022-10-12T00:36:55;26.02;;;13.73;;
9310;SDS011;4694;52.464;13.480;2022-10-12T00:39:22;22.00;;;13.57;;
9310;SDS011;4694;52.464;13.480;2022-10-12T00:41:49;26.35;;;13.32;;
9310;SDS011;4694;52.464;13.480;2022-10-12T00:44:35;21.38;;;14.30;;
9310;SDS011;4694;52.464;13.480;2022-10-12T00:47:06;23.60;;;13.10;;
9310;SDS011;4694;52.464;13.480;2022-10-12T00:49:33;26.30;;;13.00;;
9310;SDS011;4694;52.464;13.480;2022-10-12T00:52:02;27.73;;;14.65;;
9310;SDS011;4694;52.464;13.480;2022-10-12T00:54:31;27.20;;;13.27;;
9310;SDS011;4694;52.464;13.480;2022-10-12T00:57:01;27.67;;;13.23;;
9310;SDS011;4694;52.464;13.480;2022-10-12T00:59:30;26.52;;;15.23;;
9310;SDS011;4694;52.464;13.480;2022-10-12T01:01:57;31.45;;;13.60;;
9310;SDS011;4694;52.464;13.480;2022-10-12T01:04:25;35.10;;;14.98;;
9310;SDS011;4694;52.464;13.480;2022-10-12T01:06:52;19.98;;;13.60;;
9310;SDS011;4694;52.464;13.480;2022-10-12T01:09:19;20.70;;;13.05;;
9310;SDS011;4694;52.464;13.480;2022-10-12T01:11:47;24.42;;;12.82;;
9310;SDS011;4694;52.464;13.480;2022-10-12T01:14:14;23.13;;;14.43;;
9310;SDS011;4694;52.464;13.480;2022-10-12T01:16:42;21.88;;;13.13;;
9310;SDS011;4694;52.464;13.480;2022-10-12T01:19:16;23.25;;;12.48;;
9310;SDS011;4694;52.464;13.480;2022-10-12T01:21:47;22.00;;;13.60;;
9310;SDS011;4694;52.464;13.480;2022-10-12T01:24:30;19.88;;;12.85;;
9310;SDS011;4694;52.464;13.480;2022-10-12T01:29:54;20.55;;;12.68;;
9310;SDS011;4694;52.464;13.480;2022-10-12T01:32:23;25.30;;;12.20;;
9310;SDS011;4694;52.464;13.480;2022-10-12T01:34:52;22.37;;;10.80;;
9310;SDS011;4694;52.464;13.480;2022-10-12T01:37:22;22.20;;;11.80;;
9310;SDS011;4694;52.464;13.480;2022-10-12T01:39:53;19.52;;;11.77;;
9310;SDS011;4694;52.464;13.480;2022-10-12T01:42:22;17.35;;;10.82;;
9310;SDS011;4694;52.464;13.480;2022-10-12T01:45:00;18.73;;;10.02;;
9310;SDS011;4694;52.464;13.480;2022-10-12T01:47:27;17.75;;;10.48;;
9310;SDS011;4694;52.464;13.480;2022-10-12T01:49:54;21.33;;;11.63;;
9310;SDS011;4694;52.464;13.480;2022-10-12T01:52:25;21.80;;;12.25;;
9310;SDS011;4694;52.464;13.480;2022-10-12T01:54:55;21.85;;;11.45;;
9310;SDS011;4694;52.464;13.480;2022-10-12T01:57:28;23.42;;;12.13;;
9310;SDS011;4694;52.464;13.480;2022-10-12T01:59:59;20.27;;;12.50;;
9310;SDS011;4694;52.464;13.480;2022-10-12T02:02:31;22.63;;;11.57;;
9310;SDS011;4694;52.464;13.480;2022-10-12T02:05:01;19.52;;;11.30;;
9310;SDS011;4694;52.464;13.480;2022-10-12T02:07:32;20.58;;;11.95;;
9310;SDS011;4694;52.464;13.480;2022-10-12T02:10:00;17.83;;;10.95;;
9310;SDS011;4694;52.464;13.480;2022-10-12T02:12:28;19.48;;;11.18;;
9310;SDS011;4694;52.464;13.480;2022-10-12T02:14:57;19.40;;;10.98;;
9310;SDS011;4694;52.464;13.480;2022-10-12T02:17:25;19.20;;;10.70;;
9310;SDS011;4694;52.464;13.480;2022-10-12T02:19:54;28.13;;;12.15;;
9310;SDS011;4694;52.464;13.480;2022-10-12T02:22:22;22.05;;;12.80;;
9310;SDS011;4694;52.464;13.480;2022-10-12T02:24:50;21.02;;;12.25;;
9310;SDS011;4694;52.464;13.480;2022-10-12T02:27:17;22.05;;;11.07;;
9310;SDS011;4694;52.464;13.480;2022-10-12T02:29:46;27.05;;;11.68;;
9310;SDS011;4694;52.464;13.480;2022-10-12T02:32:15;19.88;;;11.32;;
9310;SDS011;4694;52.464;13.480;2022-10-12T02:34:43;27.77;;;12.63;;
9310;SDS011;4694;52.464;13.480;2022-10-12T02:37:16;19.73;;;10.00;;
9310;SDS011;4694;52.464;13.480;2022-10-12T02:39:46;21.05;;;10.68;;
9310;SDS011;4694;52.464;13.480;2022-10-12T02:42:15;18.27;;;10.02;;
9310;SDS011;4694;52.464;13.480;2022-10-12T02:44:43;19.52;;;11.55;;
9310;SDS011;4694;52.464;13.480;2022-10-12T02:47:11;20.92;;;11.23;;
9310;SDS011;4694;52.464;13.480;2022-10-12T02:49:38;17.50;;;10.07;;
9310;SDS011;4694;52.464;13.480;2022-10-12T02:52:06;23.20;;;11.63;;
9310;SDS011;4694;52.464;13.480;2022-10-12T02:54:34;22.45;;;10.77;;
9310;SDS011;4694;52.464;13.480;2022-10-12T02:57:01;26.27;;;11.70;;
9310;SDS011;4694;52.464;13.480;2022-10-12T02:59:28;28.33;;;12.32;;
9310;SDS011;4694;52.464;13.480;2022-10-12T03:01:55;21.42;;;12.25;;
9310;SDS011;4694;52.464;13.480;2022-10-12T03:04:22;20.45;;;11.63;;
9310;SDS011;4694;52.464;13.480;2022-10-12T03:06:49;20.73;;;11.88;;
9310;SDS011;4694;52.464;13.480;2022-10-12T03:09:16;19.40;;;11.32;;
9310;SDS011;4694;52.464;13.480;2022-10-12T03:11:44;18.60;;;10.38;;
9310;SDS011;4694;52.464;13.480;2022-10-12T03:14:12;27.33;;;11.80;;
9310;SDS011;4694;52.464;13.480;2022-10-12T03:16:40;19.17;;;10.43;;
9310;SDS011;4694;52.464;13.480;2022-10-12T03:19:08;23.83;;;12.65;;
9310;SDS011;4694;52.464;13.480;2022-10-12T03:21:35;23.45;;;11.23;;
9310;SDS011;4694;52.464;13.480;2022-10-12T03:24:02;26.10;;;11.38;;
9310;SDS011;4694;52.464;13.480;2022-10-12T03:26:29;19.08;;;10.70;;
9310;SDS011;4694;52.464;13.480;2022-10-12T03:28:57;18.55;;;10.55;;
9310;SDS011;4694;52.464;13.480;2022-10-12T03:31:24;22.20;;;10.35;;
9310;SDS011;4694;52.464;13.480;2022-10-12T03:33:51;17.50;;;10.52;;
9310;SDS011;4694;52.464;13.480;2022-10-12T03:36:18;18.42;;;10.40;;
9310;SDS011;4694;52.464;13.480;2022-10-12T03:38:45;26.23;;;11.88;;
9310;SDS011;4694;52.464;13.480;2022-10-12T03:41:12;22.73;;;11.57;;
9310;SDS011;4694;52.464;13.480;2022-10-12T03:43:39;22.08;;;11.27;;
9310;SDS011;4694;52.464;13.480;2022-10-12T03:46:07;17.35;;;10.77;;
9310;SDS011;4694;52.464;13.480;2022-10-12T03:48:34;33.35;;;14.18;;
9310;SDS011;4694;52.464;13.480;2022-10-12T03:51:01;20.00;;;10.55;;
9310;SDS011;4694;52.464;13.480;2022-10-12T03:53:28;18.67;;;9.65;;
9310;SDS011;4694;52.464;13.480;2022-10-12T03:55:56;26.48;;;10.63;;
9310;SDS011;4694;52.464;13.480;2022-10-12T03:58:23;21.50;;;11.70;;
9310;SDS011;4694;52.464;13.480;2022-10-12T04:00:50;25.80;;;11.77;;
9310;SDS011;4694;52.464;13.480;2022-10-12T04:03:19;21.92;;;11.52;;
9310;SDS011;4694;52.464;13.480;2022-10-12T04:05:50;22.17;;;11.00;;
9310;SDS011;4694;52.464;13.480;2022-10-12T04:08:18;23.58;;;10.98;;
9310;SDS011;4694;52.464;13.480;2022-10-12T04:10:45;20.48;;;11.10;;
9310;SDS011;4694;52.464;13.480;2022-10-12T04:13:12;17.25;;;10.32;;
9310;SDS011;4694;52.464;13.480;2022-10-12T04:15:39;22.92;;;11.85;;
9310;SDS011;4694;52.464;13.480;2022-10-12T04:18:06;20.70;;;10.18;;
9310;SDS011;4694;52.464;13.480;2022-10-12T04:20:34;50.67;;;10.82;;
9310;SDS011;4694;52.464;13.480;2022-10-12T04:23:01;22.05;;;10.05;;
9310;SDS011;4694;52.464;13.480;2022-10-12T04:25:28;17.98;;;10.85;;
9310;SDS011;4694;52.464;13.480;2022-10-12T04:27:55;19.15;;;10.38;;
9310;SDS011;4694;52.464;13.480;2022-10-12T04:30:22;21.58;;;11.25;;
9310;SDS011;4694;52.464;13.480;2022-10-12T04:32:49;18.38;;;9.65;;
9310;SDS011;4694;52.464;13.480;2022-10-12T04:35:17;16.40;;;10.10;;
9310;SDS011;4694;52.464;13.480;2022-10-12T04:37:45;17.77;;;9.98;;
9310;SDS011;4694;52.464;13.480;2022-10-12T04:40:12;20.27;;;12.20;;
9310;SDS011;4694;52.464;13.480;2022-10-12T04:42:39;16.63;;;10.45;;
9310;SDS011;4694;52.464;13.480;2022-10-12T04:45:06;19.00;;;9.93;;
9310;SDS011;4694;52.464;13.480;2022-10-12T04:47:33;19.92;;;9.95;;
9310;SDS011;4694;52.464;13.480;2022-10-12T04:50:01;17.52;;;11.40;;
9310;SDS011;4694;52.464;13.480;2022-10-12T04:52:28;19.17;;;10.70;;
9310;SDS011;4694;52.464;13.480;2022-10-12T04:54:56;16.10;;;10.38;;
9310;SDS011;4694;52.464;13.480;2022-10-12T04:57:23;17.90;;;10.45;;
9310;SDS011;4694;52.464;13.480;2022-10-12T04:59:50;18.75;;;10.70;;
9310;SDS011;4694;52.464;13.480;2022-10-12T05:02:17;24.73;;;10.57;;
9310;SDS011;4694;52.464;13.480;2022-10-12T05:04:44;19.42;;;10.35;;
9310;SDS011;4694;52.464;13.480;2022-10-12T05:07:11;19.88;;;11.80;;
9310;SDS011;4694;52.464;13.480;2022-10-12T05:09:38;13.05;;;8.68;;
9310;SDS011;4694;52.464;13.480;2022-10-12T05:12:06;23.92;;;11.55;;
9310;SDS011;4694;52.464;13.480;2022-10-12T05:14:33;20.10;;;9.95;;
9310;SDS011;4694;52.464;13.480;2022-10-12T05:17:00;17.38;;;10.38;;
9310;SDS011;4694;52.464;13.480;2022-10-12T05:19:27;15.93;;;9.60;;
9310;SDS011;4694;52.464;13.480;2022-10-12T05:21:54;24.60;;;11.63;;
9310;SDS011;4694;52.464;13.480;2022-10-12T05:24:21;24.65;;;9.70;;
9310;SDS011;4694;52.464;13.480;2022-10-12T05:26:48;16.50;;;10.43;;
9310;SDS011;4694;52.464;13.480;2022-10-12T05:29:16;19.23;;;9.88;;
9310;SDS011;4694;52.464;13.480;2022-10-12T05:31:43;19.60;;;10.27;;
9310;SDS011;4694;52.464;13.480;2022-10-12T05:34:10;15.35;;;9.27;;
9310;SDS011;4694;52.464;13.480;2022-10-12T05:36:37;15.18;;;8.85;;
9310;SDS011;4694;52.464;13.480;2022-10-12T05:39:04;19.05;;;9.25;;
9310;SDS011;4694;52.464;13.480;2022-10-12T05:41:31;18.90;;;10.02;;
9310;SDS011;4694;52.464;13.480;2022-10-12T05:43:58;19.95;;;10.80;;
9310;SDS011;4694;52.464;13.480;2022-10-12T05:46:26;20.20;;;11.18;;
9310;SDS011;4694;52.464;13.480;2022-10-12T05:48:53;18.35;;;8.85;;
9310;SDS011;4694;52.464;13.480;2022-10-12T05:51:20;15.90;;;9.77;;
9310;SDS011;4694;52.464;13.480;2022-10-12T05:53:47;20.13;;;9.65;;
9310;SDS011;4694;52.464;13.480;2022-10-12T05:56:14;16.02;;;9.52;;
9310;SDS011;4694;52.464;13.480;2022-10-12T05:58:41;21.15;;;10.38;;
9310;SDS011;4694;52.464;13.480;2022-10-12T06:01:09;17.20;;;8.82;;
9310;SDS011;4694;52.464;13.480;2022-10-12T06:03:37;18.27;;;10.80;;
9310;SDS011;4694;52.464;13.480;2022-10-12T06:06:04;15.70;;;8.48;;
9310;SDS011;4694;52.464;13.480;2022-10-12T06:08:32;19.55;;;10.25;;
9310;SDS011;4694;52.464;13.480;2022-10-12T06:10:59;20.55;;;10.15;;
9310;SDS011;4694;52.464;13.480;2022-10-12T06:13:26;14.57;;;9.02;;
9310;SDS011;4694;52.464;13.480;2022-10-12T06:15:53;20.88;;;8.85;;
9310;SDS011;4694;52.464;13.480;2022-10-12T06:18:20;16.55;;;9.88;;
9310;SDS011;4694;52.464;13.480;2022-10-12T06:20:49;19.13;;;9.57;;
9310;SDS011;4694;52.464;13.480;2022-10-12T06:23:16;25.23;;;10.88;;
9310;SDS011;4694;52.464;13.480;2022-10-12T06:25:44;23.67;;;10.32;;
9310;SDS011;4694;52.464;13.480;2022-10-12T06:28:11;14.93;;;9.07;;
9310;SDS011;4694;52.464;13.480;2022-10-12T06:30:38;22.88;;;11.20;;
9310;SDS011;4694;52.464;13.480;2022-10-12T06:33:05;19.00;;;8.73;;
9310;SDS011;4694;52.464;13.480;2022-10-12T06:35:32;18.58;;;9.95;;
9310;SDS011;4694;52.464;13.480;2022-10-12T06:38:01;16.42;;;9.63;;
9310;SDS011;4694;52.464;13.480;2022-10-12T06:40:28;32.05;;;12.93;;
9310;SDS011;4694;52.464;13.480;2022-10-12T06:42:55;25.13;;;14.40;;
9310;SDS011;4694;52.464;13.480;2022-10-12T06:45:26;20.45;;;11.00;;
9310;SDS011;4694;52.464;13.480;2022-10-12T06:47:53;16.05;;;8.88;;
9310;SDS011;4694;52.464;13.480;2022-10-12T06:50:20;33.85;;;17.92;;
9310;SDS011;4694;52.464;13.480;2022-10-12T06:52:47;23.70;;;12.25;;
9310;SDS011;4694;52.464;13.480;2022-10-12T06:55:15;16.00;;;9.02;;
9310;SDS011;4694;52.464;13.480;2022-10-12T06:57:42;16.63;;;8.02;;
9310;SDS011;4694;52.464;13.480;2022-10-12T07:00:10;16.00;;;8.85;;
9310;SDS011;4694;52.464;13.480;2022-10-12T07:02:37;26.67;;;10.32;;
9310;SDS011;4694;52.464;13.480;2022-10-12T07:05:05;23.35;;;13.38;;
9310;SDS011;4694;52.464;13.480;2022-10-12T07:07:32;24.13;;;13.52;;
9310;SDS011;4694;52.464;13.480;2022-10-12T07:10:00;23.25;;;12.50;;
9310;SDS011;4694;52.464;13.480;2022-10-12T07:12:29;12.95;;;8.10;;
9310;SDS011;4694;52.464;13.480;2022-10-12T07:14:56;11.98;;;7.63;;
9310;SDS011;4694;52.464;13.480;2022-10-12T07:17:24;14.85;;;6.45;;
9310;SDS011;4694;52.464;13.480;2022-10-12T07:19:51;11.05;;;6.40;;
9310;SDS011;4694;52.464;13.480;2022-10-12T07:22:18;17.65;;;5.72;;
9310;SDS011;4694;52.464;13.480;2022-10-12T07:24:45;16.77;;;9.25;;
9310;SDS011;4694;52.464;13.480;2022-10-12T07:27:12;10.82;;;6.32;;
9310;SDS011;4694;52.464;13.480;2022-10-12T07:29:40;16.10;;;7.78;;
9310;SDS011;4694;52.464;13.480;2022-10-12T07:32:07;11.60;;;6.13;;
9310;SDS011;4694;52.464;13.480;2022-10-12T07:34:34;12.82;;;5.68;;
9310;SDS011;4694;52.464;13.480;2022-10-12T07:37:01;10.30;;;5.35;;
9310;SDS011;4694;52.464;13.480;2022-10-12T07:39:28;12.50;;;6.15;;
9310;SDS011;4694;52.464;13.480;2022-10-12T07:41:55;14.02;;;6.85;;
9310;SDS011;4694;52.464;13.480;2022-10-12T07:44:22;12.15;;;6.10;;
9310;SDS011;4694;52.464;13.480;2022-10-12T07:46:51;21.15;;;8.35;;
9310;SDS011;4694;52.464;13.480;2022-10-12T07:49:18;16.15;;;7.03;;
9310;SDS011;4694;52.464;13.480;2022-10-12T07:51:45;13.20;;;6.65;;
9310;SDS011;4694;52.464;13.480;2022-10-12T07:54:12;12.52;;;5.72;;
9310;SDS011;4694;52.464;13.480;2022-10-12T07:56:39;11.07;;;5.57;;
9310;SDS011;4694;52.464;13.480;2022-10-12T07:59:06;15.52;;;5.35;;
9310;SDS011;4694;52.464;13.480;2022-10-12T08:01:34;11.15;;;4.97;;
9310;SDS011;4694;52.464;13.480;2022-10-12T08:04:02;12.43;;;4.80;;
9310;SDS011;4694;52.464;13.480;2022-10-12T08:06:30;15.52;;;5.82;;
9310;SDS011;4694;52.464;13.480;2022-10-12T08:08:57;11.77;;;6.28;;
9310;SDS011;4694;52.464;13.480;2022-10-12T08:11:25;21.35;;;7.15;;
9310;SDS011;4694;52.464;13.480;2022-10-12T08:13:52;12.38;;;5.75;;
9310;SDS011;4694;52.464;13.480;2022-10-12T08:16:20;12.05;;;5.28;;
9310;SDS011;4694;52.464;13.480;2022-10-12T08:18:47;16.75;;;6.25;;
9310;SDS011;4694;52.464;13.480;2022-10-12T08:21:16;17.98;;;6.38;;
9310;SDS011;4694;52.464;13.480;2022-10-12T08:23:43;10.38;;;4.97;;
9310;SDS011;4694;52.464;13.480;2022-10-12T08:26:11;11.60;;;4.43;;
9310;SDS011;4694;52.464;13.480;2022-10-12T08:28:38;14.45;;;7.97;;
9310;SDS011;4694;52.464;13.480;2022-10-12T08:31:06;12.77;;;5.10;;
9310;SDS011;4694;52.464;13.480;2022-10-12T08:33:33;8.15;;;5.00;;
9310;SDS011;4694;52.464;13.480;2022-10-12T08:36:00;14.18;;;4.88;;
9310;SDS011;4694;52.464;13.480;2022-10-12T08:38:29;10.05;;;4.22;;
9310;SDS011;4694;52.464;13.480;2022-10-12T08:40:58;10.20;;;5.07;;
9310;SDS011;4694;52.464;13.480;2022-10-12T08:45:54;8.77;;;4.35;;
9310;SDS011;4694;52.464;13.480;2022-10-12T08:48:22;14.77;;;5.45;;
9310;SDS011;4694;52.464;13.480;2022-10-12T08:50:51;10.63;;;4.65;;
9310;SDS011;4694;52.464;13.480;2022-10-12T08:53:20;17.15;;;5.82;;
9310;SDS011;4694;52.464;13.480;2022-10-12T08:55:51;9.82;;;3.95;;
9310;SDS011;4694;52.464;13.480;2022-10-12T08:58:18;13.80;;;4.25;;
9310;SDS011;4694;52.464;13.480;2022-10-12T09:00:47;13.20;;;4.40;;
9310;SDS011;4694;52.464;13.480;2022-10-12T09:03:17;12.10;;;4.35;;
9310;SDS011;4694;52.464;13.480;2022-10-12T09:05:46;14.55;;;4.63;;
9310;SDS011;4694;52.464;13.480;2022-10-12T09:08:19;14.65;;;5.30;;
9310;SDS011;4694;52.464;13.480;2022-10-12T09:10:53;9.43;;;5.15;;
9310;SDS011;4694;52.464;13.480;2022-10-12T09:13:27;13.80;;;6.82;;
9310;SDS011;4694;52.464;13.480;2022-10-12T09:15:57;13.60;;;5.82;;
9310;SDS011;4694;52.464;13.480;2022-10-12T09:18:28;7.78;;;3.50;;
9310;SDS011;4694;52.464;13.480;2022-10-12T09:20:57;11.25;;;3.75;;
9310;SDS011;4694;52.464;13.480;2022-10-12T09:23:27;7.80;;;3.90;;
9310;SDS011;4694;52.464;13.480;2022-10-12T09:25:59;15.32;;;3.60;;
9310;SDS011;4694;52.464;13.480;2022-10-12T09:28:30;8.75;;;3.35;;
9310;SDS011;4694;52.464;13.480;2022-10-12T09:31:04;8.70;;;2.92;;
9310;SDS011;4694;52.464;13.480;2022-10-12T09:33:34;11.93;;;2.08;;
9310;SDS011;4694;52.464;13.480;2022-10-12T09:36:02;10.18;;;3.30;;
9310;SDS011;4694;52.464;13.480;2022-10-12T09:38:29;8.50;;;3.03;;
9310;SDS011;4694;52.464;13.480;2022-10-12T09:40:58;10.10;;;3.95;;
9310;SDS011;4694;52.464;13.480;2022-10-12T09:43:25;9.65;;;2.25;;
9310;SDS011;4694;52.464;13.480;2022-10-12T09:45:52;13.43;;;2.97;;
9310;SDS011;4694;52.464;13.480;2022-10-12T09:48:20;9.93;;;2.15;;
9310;SDS011;4694;52.464;13.480;2022-10-12T09:50:49;9.18;;;2.63;;
9310;SDS011;4694;52.464;13.480;2022-10-12T09:53:21;8.65;;;2.47;;
9310;SDS011;4694;52.464;13.480;2022-10-12T09:55:59;18.65;;;3.20;;
9310;SDS011;4694;52.464;13.480;2022-10-12T09:58:26;8.13;;;2.17;;
9310;SDS011;4694;52.464;13.480;2022-10-12T10:03:42;6.22;;;1.65;;
9310;SDS011;4694;52.464;13.480;2022-10-12T10:06:09;6.50;;;1.90;;
9310;SDS011;4694;52.464;13.480;2022-10-12T10:08:39;5.30;;;1.77;;
9310;SDS011;4694;52.464;13.480;2022-10-12T10:11:13;6.70;;;2.10;;
9310;SDS011;4694;52.464;13.480;2022-10-12T10:13:48;6.03;;;2.63;;
9310;SDS011;4694;52.464;13.480;2022-10-12T10:16:16;5.03;;;1.58;;
9310;SDS011;4694;52.464;13.480;2022-10-12T10:18:43;4.05;;;1.92;;
9310;SDS011;4694;52.464;13.480;2022-10-12T10:21:13;6.25;;;1.63;;
9310;SDS011;4694;52.464;13.480;2022-10-12T10:23:41;7.80;;;1.77;;
9310;SDS011;4694;52.464;13.480;2022-10-12T10:26:09;5.78;;;2.35;;
9310;SDS011;4694;52.464;13.480;2022-10-12T10:28:41;5.88;;;1.85;;
9310;SDS011;4694;52.464;13.480;2022-10-12T10:31:15;6.53;;;1.83;;
9310;SDS011;4694;52.464;13.480;2022-10-12T10:33:48;4.05;;;1.10;;
9310;SDS011;4694;52.464;13.480;2022-10-12T10:36:28;2.40;;;1.23;;
9310;SDS011;4694;52.464;13.480;2022-10-12T10:38:56;4.28;;;2.00;;
9310;SDS011;4694;52.464;13.480;2022-10-12T10:41:26;4.43;;;1.50;;
9310;SDS011;4694;52.464;13.480;2022-10-12T10:43:58;11.95;;;3.05;;
9310;SDS011;4694;52.464;13.480;2022-10-12T10:46:25;2.60;;;1.10;;
9310;SDS011;4694;52.464;13.480;2022-10-12T10:48:55;3.35;;;1.55;;
9310;SDS011;4694;52.464;13.480;2022-10-12T10:51:37;5.18;;;1.05;;
9310;SDS011;4694;52.464;13.480;2022-10-12T10:54:11;3.10;;;1.20;;
9310;SDS011;4694;52.464;13.480;2022-10-12T10:56:38;3.75;;;1.50;;
9310;SDS011;4694;52.464;13.480;2022-10-12T10:59:13;6.43;;;2.63;;
9310;SDS011;4694;52.464;13.480;2022-10-12T11:01:43;4.50;;;1.42;;
9310;SDS011;4694;52.464;13.480;2022-10-12T11:04:14;8.00;;;1.63;;
9310;SDS011;4694;52.464;13.480;2022-10-12T11:06:43;4.35;;;1.30;;
9310;SDS011;4694;52.464;13.480;2022-10-12T11:09:11;4.80;;;1.50;;
9310;SDS011;4694;52.464;13.480;2022-10-12T11:11:40;6.07;;;1.83;;
9310;SDS011;4694;52.464;13.480;2022-10-12T11:14:13;7.07;;;2.60;;
9310;SDS011;4694;52.464;13.480;2022-10-12T11:16:41;2.67;;;1.45;;
9310;SDS011;4694;52.464;13.480;2022-10-12T11:19:15;6.28;;;2.28;;
9310;SDS011;4694;52.464;13.480;2022-10-12T11:21:45;7.15;;;1.88;;
9310;SDS011;4694;52.464;13.480;2022-10-12T11:24:14;3.37;;;1.67;;
9310;SDS011;4694;52.464;13.480;2022-10-12T11:26:44;5.68;;;1.08;;
9310;SDS011;4694;52.464;13.480;2022-10-12T11:29:13;4.03;;;1.80;;
9310;SDS011;4694;52.464;13.480;2022-10-12T11:31:42;3.85;;;1.33;;
9310;SDS011;4694;52.464;13.480;2022-10-12T11:34:12;4.03;;;1.33;;
9310;SDS011;4694;52.464;13.480;2022-10-12T11:36:41;4.55;;;1.42;;
9310;SDS011;4694;52.464;13.480;2022-10-12T11:39:12;6.15;;;1.10;;
9310;SDS011;4694;52.464;13.480;2022-10-12T11:41:42;6.38;;;1.80;;
9310;SDS011;4694;52.464;13.480;2022-10-12T11:44:11;4.60;;;1.88;;
9310;SDS011;4694;52.464;13.480;2022-10-12T11:46:42;5.68;;;1.48;;
9310;SDS011;4694;52.464;13.480;2022-10-12T11:49:11;8.88;;;1.67;;
9310;SDS011;4694;52.464;13.480;2022-10-12T11:51:40;4.55;;;1.38;;
9310;SDS011;4694;52.464;13.480;2022-10-12T11:54:12;3.75;;;1.20;;
9310;SDS011;4694;52.464;13.480;2022-10-12T11:56:44;4.25;;;1.23;;
9310;SDS011;4694;52.464;13.480;2022-10-12T11:59:12;4.10;;;1.10;;
9310;SDS011;4694;52.464;13.480;2022-10-12T12:01:48;4.93;;;1.15;;
9310;SDS011;4694;52.464;13.480;2022-10-12T12:04:24;2.90;;;1.23;;
9310;SDS011;4694;52.464;13.480;2022-10-12T12:06:54;6.05;;;1.60;;
9310;SDS011;4694;52.464;13.480;2022-10-12T12:09:32;4.72;;;1.52;;
9310;SDS011;4694;52.464;13.480;2022-10-12T12:12:06;4.17;;;1.00;;
9310;SDS011;4694;52.464;13.480;2022-10-12T12:14:48;3.35;;;1.00;;
9310;SDS011;4694;52.464;13.480;2022-10-12T12:17:22;3.42;;;1.23;;
9310;SDS011;4694;52.464;13.480;2022-10-12T12:19:49;7.47;;;1.30;;
9310;SDS011;4694;52.464;13.480;2022-10-12T12:22:20;6.22;;;1.15;;
9310;SDS011;4694;52.464;13.480;2022-10-12T12:24:55;3.33;;;1.48;;
9310;SDS011;4694;52.464;13.480;2022-10-12T12:27:27;3.53;;;1.17;;
9310;SDS011;4694;52.464;13.480;2022-10-12T12:29:55;3.40;;;1.10;;
9310;SDS011;4694;52.464;13.480;2022-10-12T12:32:24;5.07;;;0.90;;
9310;SDS011;4694;52.464;13.480;2022-10-12T12:34:53;4.97;;;1.67;;
9310;SDS011;4694;52.464;13.480;2022-10-12T12:37:20;3.97;;;1.10;;
9310;SDS011;4694;52.464;13.480;2022-10-12T12:39:51;5.65;;;1.40;;
9310;SDS011;4694;52.464;13.480;2022-10-12T12:42:20;4.05;;;1.20;;
9310;SDS011;4694;52.464;13.480;2022-10-12T12:44:48;4.10;;;1.08;;
9310;SDS011;4694;52.464;13.480;2022-10-12T12:47:17;3.22;;;0.85;;
9310;SDS011;4694;52.464;13.480;2022-10-12T12:49:46;4.80;;;1.83;;
9310;SDS011;4694;52.464;13.480;2022-10-12T12:52:16;3.00;;;0.68;;
9310;SDS011;4694;52.464;13.480;2022-10-12T12:54:47;3.78;;;0.85;;
9310;SDS011;4694;52.464;13.480;2022-10-12T12:57:33;6.65;;;1.55;;
9310;SDS011;4694;52.464;13.480;2022-10-12T13:02:47;3.92;;;1.13;;
9310;SDS011;4694;52.464;13.480;2022-10-12T13:05:33;4.28;;;1.23;;
9310;SDS011;4694;52.464;13.480;2022-10-12T13:08:13;3.10;;;1.40;;
9310;SDS011;4694;52.464;13.480;2022-10-12T13:10:48;6.30;;;1.83;;
9310;SDS011;4694;52.464;13.480;2022-10-12T13:13:27;4.97;;;1.13;;
9310;SDS011;4694;52.464;13.480;2022-10-12T13:16:02;8.20;;;1.73;;
9310;SDS011;4694;52.464;13.480;2022-10-12T13:18:38;4.70;;;1.70;;
9310;SDS011;4694;52.464;13.480;2022-10-12T13:21:11;5.22;;;0.98;;
9310;SDS011;4694;52.464;13.480;2022-10-12T13:23:41;6.32;;;1.00;;
9310;SDS011;4694;52.464;13.480;2022-10-12T13:26:11;2.67;;;1.10;;
9310;SDS011;4694;52.464;13.480;2022-10-12T13:28:41;2.67;;;1.08;;
9310;SDS011;4694;52.464;13.480;2022-10-12T13:31:12;6.50;;;1.20;;
9310;SDS011;4694;52.464;13.480;2022-10-12T13:33:41;2.40;;;1.45;;
9310;SDS011;4694;52.464;13.480;2022-10-12T13:36:15;4.82;;;1.63;;
9310;SDS011;4694;52.464;13.480;2022-10-12T13:38:43;4.10;;;1.10;;
9310;SDS011;4694;52.464;13.480;2022-10-12T13:41:11;7.30;;;1.23;;
9310;SDS011;4694;52.464;13.480;2022-10-12T13:43:41;5.15;;;1.40;;
9310;SDS011;4694;52.464;13.480;2022-10-12T13:46:09;4.38;;;0.95;;
9310;SDS011;4694;52.464;13.480;2022-10-12T13:48:37;4.60;;;1.00;;
9310;SDS011;4694;52.464;13.480;2022-10-12T13:51:04;3.20;;;0.82;;
9310;SDS011;4694;52.464;13.480;2022-10-12T13:53:45;3.55;;;0.95;;
9310;SDS011;4694;52.464;13.480;2022-10-12T13:56:12;2.72;;;0.90;;
9310;SDS011;4694;52.464;13.480;2022-10-12T13:58:41;5.20;;;1.13;;
9310;SDS011;4694;52.464;13.480;2022-10-12T14:01:09;7.43;;;1.45;;
9310;SDS011;4694;52.464;13.480;2022-10-12T14:03:37;2.78;;;1.13;;
9310;SDS011;4694;52.464;13.480;2022-10-12T14:06:05;2.95;;;1.48;;
9310;SDS011;4694;52.464;13.480;2022-10-12T14:08:32;4.22;;;1.48;;
9310;SDS011;4694;52.464;13.480;2022-10-12T14:11:01;3.53;;;1.30;;
9310;SDS011;4694;52.464;13.480;2022-10-12T14:13:31;3.28;;;1.20;;
9310;SDS011;4694;52.464;13.480;2022-10-12T14:15:59;5.33;;;1.13;;
9310;SDS011;4694;52.464;13.480;2022-10-12T14:18:35;8.05;;;2.05;;
9310;SDS011;4694;52.464;13.480;2022-10-12T14:21:03;4.57;;;0.90;;
9310;SDS011;4694;52.464;13.480;2022-10-12T14:23:30;4.88;;;1.40;;
9310;SDS011;4694;52.464;13.480;2022-10-12T14:25:57;4.53;;;1.02;;
9310;SDS011;4694;52.464;13.480;2022-10-12T14:28:27;4.97;;;1.40;;
9310;SDS011;4694;52.464;13.480;2022-10-12T14:30:55;2.97;;;0.82;;
9310;SDS011;4694;52.464;13.480;2022-10-12T14:33:23;7.40;;;1.55;;
9310;SDS011;4694;52.464;13.480;2022-10-12T14:35:50;4.10;;;1.23;;
9310;SDS011;4694;52.464;13.480;2022-10-12T14:38:29;5.05;;;0.88;;
9310;SDS011;4694;52.464;13.480;2022-10-12T14:43:44;5.13;;;1.08;;
9310;SDS011;4694;52.464;13.480;2022-10-12T14:46:11;6.82;;;0.90;;
9310;SDS011;4694;52.464;13.480;2022-10-12T14:48:38;6.43;;;1.08;;
9310;SDS011;4694;52.464;13.480;2022-10-12T14:51:05;9.30;;;1.20;;
9310;SDS011;4694;52.464;13.480;2022-10-12T14:53:33;4.05;;;0.68;;
9310;SDS011;4694;52.464;13.480;2022-10-12T14:56:00;5.07;;;1.27;;
9310;SDS011;4694;52.464;13.480;2022-10-12T15:01:13;3.50;;;1.30;;
9310;SDS011;4694;52.464;13.480;2022-10-12T15:03:40;4.85;;;1.70;;
9310;SDS011;4694;52.464;13.480;2022-10-12T15:06:08;6.05;;;1.38;;
9310;SDS011;4694;52.464;13.480;2022-10-12T15:08:36;5.70;;;1.35;;
9310;SDS011;4694;52.464;13.480;2022-10-12T15:11:05;6.43;;;1.92;;
9310;SDS011;4694;52.464;13.480;2022-10-12T15:13:32;4.15;;;1.33;;